sensor_id;sensor_type;location;lat;lon;timestamp;pressure;altitude;pressure_sealevel;temperature;humidity
57050;BME280;42935;50.966;16.992;2022-09-24T00:02:33;101534.38;;;5.57;100.00
57050;BME280;42935;50.966;16.992;2022-09-24T00:05:42;101535.22;;;5.63;100.00
57050;BME280;42935;50.966;16.992;2022-09-24T00:09:01;101533.45;;;5.73;100.00
57050;BME280;42935;50.966;16.992;2022-09-24T00:12:19;101532.81;;;5.80;100.00
57050;BME280;42935;50.966;16.992;2022-09-24T00:15:43;101529.59;;;5.81;100.00
57050;BME280;42935;50.966;16.992;2022-09-24T00:19:31;101526.21;;;5.91;100.00
57050;BME280;42935;50.966;16.992;2022-09-24T00:22:43;101527.18;;;5.98;100.00
57050;BME280;42935;50.966;16.992;2022-09-24T00:25:50;101506.10;;;5.97;100.00
57050;BME280;42935;50.966;16.992;2022-09-24T00:29:15;101516.20;;;6.08;100.00
57050;BME280;42935;50.966;16.992;2022-09-24T00:32:31;101519.58;;;6.07;100.00
57050;BME280;42935;50.966;16.992;2022-09-24T00:35:41;101516.80;;;6.06;100.00
57050;BME280;42935;50.966;16.992;2022-09-24T00:39:21;101513.80;;;5.89;100.00
57050;BME280;42935;50.966;16.992;2022-09-24T00:42:32;101505.55;;;5.92;100.00
57050;BME280;42935;50.966;16.992;2022-09-24T00:45:46;101497.83;;;5.87;100.00
57050;BME280;42935;50.966;16.992;2022-09-24T00:49:34;101495.89;;;5.80;100.00
57050;BME280;42935;50.966;16.992;2022-09-24T00:56:42;101493.66;;;5.78;100.00
57050;BME280;42935;50.966;16.992;2022-09-24T01:00:26;101486.02;;;5.99;100.00
57050;BME280;42935;50.966;16.992;2022-09-24T01:04:05;101480.19;;;6.06;100.00
57050;BME280;42935;50.966;16.992;2022-09-24T01:07:47;101471.34;;;6.07;100.00
57050;BME280;42935;50.966;16.992;2022-09-24T01:15:01;101474.16;;;6.22;100.00
57050;BME280;42935;50.966;16.992;2022-09-24T01:21:46;101470.77;;;6.27;100.00
57050;BME280;42935;50.966;16.992;2022-09-24T01:32:59;101464.41;;;6.56;100.00
57050;BME280;42935;50.966;16.992;2022-09-24T01:36:10;101460.46;;;6.59;100.00
57050;BME280;42935;50.966;16.992;2022-09-24T01:39:31;101463.66;;;6.45;100.00
57050;BME280;42935;50.966;16.992;2022-09-24T01:42:43;101466.23;;;6.39;100.00
57050;BME280;42935;50.966;16.992;2022-09-24T01:46:04;101464.84;;;6.42;100.00
57050;BME280;42935;50.966;16.992;2022-09-24T01:49:26;101458.92;;;6.50;100.00
57050;BME280;42935;50.966;16.992;2022-09-24T01:53:14;101456.29;;;6.56;100.00
57050;BME280;42935;50.966;16.992;2022-09-24T02:00:33;101455.38;;;6.59;100.00
57050;BME280;42935;50.966;16.992;2022-09-24T02:03:57;101453.30;;;6.63;100.00
57050;BME280;42935;50.966;16.992;2022-09-24T02:07:22;101454.15;;;6.62;100.00
57050;BME280;42935;50.966;16.992;2022-09-24T02:11:09;101450.41;;;6.59;100.00
57050;BME280;42935;50.966;16.992;2022-09-24T02:14:26;101447.52;;;6.73;100.00
57050;BME280;42935;50.966;16.992;2022-09-24T02:17:42;101453.19;;;6.65;100.00
57050;BME280;42935;50.966;16.992;2022-09-24T02:20:59;101448.54;;;6.68;100.00
57050;BME280;42935;50.966;16.992;2022-09-24T02:24:14;101444.52;;;6.72;100.00
57050;BME280;42935;50.966;16.992;2022-09-24T02:27:58;101433.71;;;6.59;100.00
57050;BME280;42935;50.966;16.992;2022-09-24T02:31:17;101437.43;;;6.77;100.00
57050;BME280;42935;50.966;16.992;2022-09-24T02:34:41;101432.88;;;6.78;100.00
57050;BME280;42935;50.966;16.992;2022-09-24T02:38:15;101436.84;;;6.81;100.00
57050;BME280;42935;50.966;16.992;2022-09-24T02:41:57;101430.85;;;6.86;100.00
57050;BME280;42935;50.966;16.992;2022-09-24T02:45:41;101425.16;;;6.90;100.00
57050;BME280;42935;50.966;16.992;2022-09-24T02:48:48;101423.34;;;6.93;100.00
57050;BME280;42935;50.966;16.992;2022-09-24T02:51:59;101422.11;;;6.72;100.00
57050;BME280;42935;50.966;16.992;2022-09-24T02:55:13;101419.50;;;6.77;100.00
57050;BME280;42935;50.966;16.992;2022-09-24T02:58:54;101421.47;;;6.69;100.00
57050;BME280;42935;50.966;16.992;2022-09-24T03:02:12;101418.46;;;6.79;100.00
57050;BME280;42935;50.966;16.992;2022-09-24T03:05:26;101422.27;;;6.86;100.00
57050;BME280;42935;50.966;16.992;2022-09-24T03:09:09;101419.70;;;6.80;100.00
57050;BME280;42935;50.966;16.992;2022-09-24T03:12:21;101423.20;;;6.79;100.00
57050;BME280;42935;50.966;16.992;2022-09-24T03:15:41;101421.00;;;6.86;100.00
57050;BME280;42935;50.966;16.992;2022-09-24T03:18:56;101414.95;;;6.81;100.00
57050;BME280;42935;50.966;16.992;2022-09-24T03:22:08;101412.63;;;6.82;100.00
57050;BME280;42935;50.966;16.992;2022-09-24T03:25:25;101412.36;;;6.68;100.00
57050;BME280;42935;50.966;16.992;2022-09-24T03:28:36;101410.03;;;6.78;100.00
57050;BME280;42935;50.966;16.992;2022-09-24T03:31:46;101411.74;;;6.77;100.00
57050;BME280;42935;50.966;16.992;2022-09-24T03:34:56;101411.41;;;6.74;100.00
57050;BME280;42935;50.966;16.992;2022-09-24T03:38:11;101411.20;;;6.70;100.00
57050;BME280;42935;50.966;16.992;2022-09-24T03:41:25;101405.62;;;6.69;100.00
57050;BME280;42935;50.966;16.992;2022-09-24T03:44:36;101405.91;;;6.63;100.00
57050;BME280;42935;50.966;16.992;2022-09-24T03:48:23;101395.63;;;6.53;100.00
57050;BME280;42935;50.966;16.992;2022-09-24T03:51:34;101406.25;;;6.60;100.00
57050;BME280;42935;50.966;16.992;2022-09-24T03:55:17;101395.70;;;6.58;100.00
57050;BME280;42935;50.966;16.992;2022-09-24T03:58:33;101401.06;;;6.64;100.00
57050;BME280;42935;50.966;16.992;2022-09-24T04:01:46;101398.00;;;6.60;100.00
57050;BME280;42935;50.966;16.992;2022-09-24T04:04:59;101388.54;;;6.53;100.00
57050;BME280;42935;50.966;16.992;2022-09-24T04:08:10;101386.02;;;6.40;100.00
57050;BME280;42935;50.966;16.992;2022-09-24T04:11:54;101393.67;;;6.36;100.00
57050;BME280;42935;50.966;16.992;2022-09-24T04:15:10;101392.05;;;6.43;100.00
57050;BME280;42935;50.966;16.992;2022-09-24T04:18:22;101390.91;;;6.37;100.00
57050;BME280;42935;50.966;16.992;2022-09-24T04:21:36;101388.50;;;6.31;100.00
57050;BME280;42935;50.966;16.992;2022-09-24T04:24:48;101384.60;;;6.29;100.00
57050;BME280;42935;50.966;16.992;2022-09-24T04:28:05;101382.01;;;6.33;100.00
57050;BME280;42935;50.966;16.992;2022-09-24T04:31:24;101384.05;;;6.33;100.00
57050;BME280;42935;50.966;16.992;2022-09-24T04:34:39;101372.60;;;6.26;100.00
57050;BME280;42935;50.966;16.992;2022-09-24T04:38:01;101383.67;;;6.29;100.00
57050;BME280;42935;50.966;16.992;2022-09-24T04:41:12;101387.62;;;6.19;100.00
57050;BME280;42935;50.966;16.992;2022-09-24T04:44:26;101374.56;;;6.14;100.00
57050;BME280;42935;50.966;16.992;2022-09-24T04:47:40;101375.21;;;6.19;100.00
57050;BME280;42935;50.966;16.992;2022-09-24T04:51:21;101380.36;;;6.14;100.00
57050;BME280;42935;50.966;16.992;2022-09-24T04:54:32;101345.77;;;5.93;100.00
57050;BME280;42935;50.966;16.992;2022-09-24T04:58:14;101374.72;;;6.07;100.00
57050;BME280;42935;50.966;16.992;2022-09-24T05:01:24;101375.75;;;6.07;100.00
57050;BME280;42935;50.966;16.992;2022-09-24T05:05:05;101371.35;;;6.13;100.00
57050;BME280;42935;50.966;16.992;2022-09-24T05:08:15;101372.85;;;6.18;100.00
57050;BME280;42935;50.966;16.992;2022-09-24T05:11:29;101374.82;;;6.21;100.00
57050;BME280;42935;50.966;16.992;2022-09-24T05:14:42;101370.41;;;6.31;100.00
57050;BME280;42935;50.966;16.992;2022-09-24T05:17:55;101367.41;;;6.28;100.00
57050;BME280;42935;50.966;16.992;2022-09-24T05:21:36;101370.12;;;6.32;100.00
57050;BME280;42935;50.966;16.992;2022-09-24T05:24:45;101362.50;;;6.30;100.00
57050;BME280;42935;50.966;16.992;2022-09-24T05:27:56;101367.74;;;6.38;100.00
57050;BME280;42935;50.966;16.992;2022-09-24T05:31:06;101366.52;;;6.52;100.00
57050;BME280;42935;50.966;16.992;2022-09-24T05:34:18;101367.13;;;6.54;100.00
57050;BME280;42935;50.966;16.992;2022-09-24T05:37:29;101357.19;;;6.57;100.00
57050;BME280;42935;50.966;16.992;2022-09-24T05:40:44;101358.63;;;6.62;100.00
57050;BME280;42935;50.966;16.992;2022-09-24T05:44:00;101354.30;;;6.65;100.00
57050;BME280;42935;50.966;16.992;2022-09-24T05:47:12;101361.70;;;6.72;100.00
57050;BME280;42935;50.966;16.992;2022-09-24T05:50:19;101365.08;;;6.80;100.00
57050;BME280;42935;50.966;16.992;2022-09-24T05:53:31;101358.62;;;6.76;100.00
57050;BME280;42935;50.966;16.992;2022-09-24T05:56:49;101361.97;;;6.84;100.00
57050;BME280;42935;50.966;16.992;2022-09-24T05:59:59;101362.94;;;6.93;100.00
57050;BME280;42935;50.966;16.992;2022-09-24T06:03:13;101370.52;;;7.11;100.00
57050;BME280;42935;50.966;16.992;2022-09-24T06:06:32;101371.72;;;7.33;100.00
57050;BME280;42935;50.966;16.992;2022-09-24T06:10:16;101370.09;;;7.47;100.00
57050;BME280;42935;50.966;16.992;2022-09-24T06:13:57;101373.72;;;7.62;100.00
57050;BME280;42935;50.966;16.992;2022-09-24T06:17:38;101370.45;;;7.67;100.00
57050;BME280;42935;50.966;16.992;2022-09-24T06:21:17;101369.89;;;8.04;100.00
57050;BME280;42935;50.966;16.992;2022-09-24T06:24:28;101370.70;;;8.23;100.00
57050;BME280;42935;50.966;16.992;2022-09-24T06:27:42;101366.23;;;8.29;100.00
57050;BME280;42935;50.966;16.992;2022-09-24T06:31:22;101369.63;;;8.51;100.00
57050;BME280;42935;50.966;16.992;2022-09-24T06:34:32;101367.80;;;8.40;100.00
57050;BME280;42935;50.966;16.992;2022-09-24T06:37:43;101371.38;;;8.53;100.00
57050;BME280;42935;50.966;16.992;2022-09-24T06:40:58;101369.34;;;8.62;100.00
57050;BME280;42935;50.966;16.992;2022-09-24T06:44:10;101366.13;;;8.64;100.00
57050;BME280;42935;50.966;16.992;2022-09-24T06:47:21;101369.15;;;8.86;100.00
57050;BME280;42935;50.966;16.992;2022-09-24T06:51:05;101361.35;;;8.99;100.00
57050;BME280;42935;50.966;16.992;2022-09-24T06:54:12;101359.33;;;9.21;100.00
57050;BME280;42935;50.966;16.992;2022-09-24T06:57:25;101367.65;;;9.39;100.00
57050;BME280;42935;50.966;16.992;2022-09-24T07:00:37;101369.38;;;9.43;100.00
57050;BME280;42935;50.966;16.992;2022-09-24T07:03:51;101362.55;;;9.59;100.00
57050;BME280;42935;50.966;16.992;2022-09-24T07:07:04;101373.30;;;9.73;100.00
57050;BME280;42935;50.966;16.992;2022-09-24T07:10:28;101376.02;;;10.03;100.00
57050;BME280;42935;50.966;16.992;2022-09-24T07:13:42;101374.98;;;10.15;100.00
57050;BME280;42935;50.966;16.992;2022-09-24T07:16:54;101384.38;;;10.23;100.00
57050;BME280;42935;50.966;16.992;2022-09-24T07:20:38;101388.76;;;10.32;100.00
57050;BME280;42935;50.966;16.992;2022-09-24T07:23:48;101389.23;;;10.49;100.00
57050;BME280;42935;50.966;16.992;2022-09-24T07:26:57;101390.30;;;10.48;100.00
57050;BME280;42935;50.966;16.992;2022-09-24T07:30:12;101385.94;;;10.46;100.00
57050;BME280;42935;50.966;16.992;2022-09-24T07:33:30;101398.36;;;10.63;100.00
57050;BME280;42935;50.966;16.992;2022-09-24T07:36:42;101397.69;;;10.84;100.00
57050;BME280;42935;50.966;16.992;2022-09-24T07:39:54;101403.59;;;11.12;100.00
57050;BME280;42935;50.966;16.992;2022-09-24T07:43:07;101407.28;;;11.23;100.00
57050;BME280;42935;50.966;16.992;2022-09-24T07:46:22;101406.42;;;11.06;100.00
57050;BME280;42935;50.966;16.992;2022-09-24T07:49:33;101415.66;;;11.35;100.00
57050;BME280;42935;50.966;16.992;2022-09-24T07:52:49;101412.14;;;11.48;100.00
57050;BME280;42935;50.966;16.992;2022-09-24T07:55:59;101406.81;;;11.51;100.00
57050;BME280;42935;50.966;16.992;2022-09-24T07:59:10;101395.85;;;11.29;100.00
57050;BME280;42935;50.966;16.992;2022-09-24T08:02:23;101390.24;;;11.56;100.00
57050;BME280;42935;50.966;16.992;2022-09-24T08:06:03;101396.11;;;11.67;100.00
57050;BME280;42935;50.966;16.992;2022-09-24T08:09:15;101395.55;;;11.82;100.00
57050;BME280;42935;50.966;16.992;2022-09-24T08:12:26;101395.10;;;12.08;100.00
57050;BME280;42935;50.966;16.992;2022-09-24T08:15:37;101390.71;;;12.08;100.00
57050;BME280;42935;50.966;16.992;2022-09-24T08:18:49;101383.46;;;12.24;100.00
57050;BME280;42935;50.966;16.992;2022-09-24T08:22:01;101379.47;;;12.37;100.00
57050;BME280;42935;50.966;16.992;2022-09-24T08:25:16;101374.96;;;12.39;100.00
57050;BME280;42935;50.966;16.992;2022-09-24T08:28:26;101364.94;;;12.72;100.00
57050;BME280;42935;50.966;16.992;2022-09-24T08:31:37;101359.89;;;12.76;100.00
57050;BME280;42935;50.966;16.992;2022-09-24T08:34:53;101360.86;;;13.07;100.00
57050;BME280;42935;50.966;16.992;2022-09-24T08:38:04;101362.52;;;13.13;100.00
57050;BME280;42935;50.966;16.992;2022-09-24T08:44:48;101352.59;;;13.24;100.00
57050;BME280;42935;50.966;16.992;2022-09-24T08:48:16;101360.66;;;13.42;100.00
57050;BME280;42935;50.966;16.992;2022-09-24T08:51:34;101360.80;;;13.42;100.00
57050;BME280;42935;50.966;16.992;2022-09-24T08:54:48;101319.06;;;13.15;100.00
57050;BME280;42935;50.966;16.992;2022-09-24T09:08:24;101363.82;;;13.38;99.70
57050;BME280;42935;50.966;16.992;2022-09-24T09:11:36;101365.63;;;13.45;100.00
57050;BME280;42935;50.966;16.992;2022-09-24T09:14:59;101363.93;;;13.58;100.00
57050;BME280;42935;50.966;16.992;2022-09-24T09:21:42;101345.62;;;13.55;100.00
57050;BME280;42935;50.966;16.992;2022-09-24T09:25:02;101356.71;;;13.80;100.00
57050;BME280;42935;50.966;16.992;2022-09-24T09:28:15;101359.30;;;13.76;100.00
57050;BME280;42935;50.966;16.992;2022-09-24T09:38:19;101354.88;;;13.89;99.92
57050;BME280;42935;50.966;16.992;2022-09-24T09:44:52;101358.71;;;14.34;100.00
57050;BME280;42935;50.966;16.992;2022-09-24T09:48:02;101357.48;;;14.57;99.71
57050;BME280;42935;50.966;16.992;2022-09-24T09:51:19;101357.39;;;14.41;91.61
57050;BME280;42935;50.966;16.992;2022-09-24T09:54:38;101318.09;;;14.29;95.03
57050;BME280;42935;50.966;16.992;2022-09-24T09:57:52;101354.20;;;14.66;99.32
57050;BME280;42935;50.966;16.992;2022-09-24T10:01:14;101350.69;;;14.74;98.89
57050;BME280;42935;50.966;16.992;2022-09-24T10:07:52;101357.05;;;14.57;95.66
57050;BME280;42935;50.966;16.992;2022-09-24T10:11:03;101352.00;;;15.05;94.84
57050;BME280;42935;50.966;16.992;2022-09-24T10:14:16;101345.13;;;15.25;90.57
57050;BME280;42935;50.966;16.992;2022-09-24T10:17:37;101339.10;;;15.44;85.92
57050;BME280;42935;50.966;16.992;2022-09-24T10:20:48;101341.46;;;15.64;88.65
57050;BME280;42935;50.966;16.992;2022-09-24T10:27:35;101350.75;;;15.27;84.28
57050;BME280;42935;50.966;16.992;2022-09-24T10:34:24;101343.12;;;16.20;79.19
57050;BME280;42935;50.966;16.992;2022-09-24T10:37:37;101339.38;;;16.13;80.85
57050;BME280;42935;50.966;16.992;2022-09-24T10:40:54;101337.23;;;16.22;80.63
57050;BME280;42935;50.966;16.992;2022-09-24T10:44:10;101334.55;;;16.58;79.74
57050;BME280;42935;50.966;16.992;2022-09-24T10:47:26;101335.17;;;16.44;71.37
57050;BME280;42935;50.966;16.992;2022-09-24T10:50:47;101335.73;;;16.43;75.26
57050;BME280;42935;50.966;16.992;2022-09-24T10:57:35;101342.42;;;16.74;77.40
57050;BME280;42935;50.966;16.992;2022-09-24T11:04:21;101335.52;;;16.89;71.31
57050;BME280;42935;50.966;16.992;2022-09-24T11:11:19;101324.75;;;16.94;76.86
57050;BME280;42935;50.966;16.992;2022-09-24T11:14:46;101319.72;;;17.37;69.57
57050;BME280;42935;50.966;16.992;2022-09-24T11:18:16;101318.19;;;17.07;64.01
57050;BME280;42935;50.966;16.992;2022-09-24T11:42:25;101312.66;;;17.34;60.49
57050;BME280;42935;50.966;16.992;2022-09-24T11:45:39;101316.20;;;17.20;61.88
57050;BME280;42935;50.966;16.992;2022-09-24T11:56:40;101308.19;;;18.02;63.92
57050;BME280;42935;50.966;16.992;2022-09-24T12:00:26;101301.30;;;17.98;64.26
57050;BME280;42935;50.966;16.992;2022-09-24T12:04:16;101292.14;;;18.09;64.49
57050;BME280;42935;50.966;16.992;2022-09-24T12:11:25;101287.73;;;18.22;58.59
57050;BME280;42935;50.966;16.992;2022-09-24T12:18:11;101282.10;;;18.95;55.10
57050;BME280;42935;50.966;16.992;2022-09-24T12:21:33;101281.03;;;19.73;54.41
57050;BME280;42935;50.966;16.992;2022-09-24T12:25:17;101265.20;;;19.00;52.72
57050;BME280;42935;50.966;16.992;2022-09-24T12:28:25;101261.75;;;19.00;52.80
57050;BME280;42935;50.966;16.992;2022-09-24T12:31:59;101264.55;;;20.45;55.95
57050;BME280;42935;50.966;16.992;2022-09-24T12:42:08;101247.65;;;19.69;54.70
57050;BME280;42935;50.966;16.992;2022-09-24T12:45:22;101235.03;;;19.91;55.64
57050;BME280;42935;50.966;16.992;2022-09-24T12:48:37;101232.84;;;20.04;55.15
57050;BME280;42935;50.966;16.992;2022-09-24T12:55:34;101237.22;;;20.22;54.21
57050;BME280;42935;50.966;16.992;2022-09-24T12:58:42;101240.60;;;20.10;51.43
57050;BME280;42935;50.966;16.992;2022-09-24T13:05:26;101238.70;;;20.57;50.29
57050;BME280;42935;50.966;16.992;2022-09-24T13:08:39;101242.44;;;20.35;50.79
57050;BME280;42935;50.966;16.992;2022-09-24T13:12:01;101239.32;;;21.27;52.08
57050;BME280;42935;50.966;16.992;2022-09-24T13:15:22;101229.24;;;20.68;52.28
57050;BME280;42935;50.966;16.992;2022-09-24T13:18:40;101232.04;;;20.51;51.58
57050;BME280;42935;50.966;16.992;2022-09-24T13:21:56;101232.98;;;21.00;52.44
57050;BME280;42935;50.966;16.992;2022-09-24T13:28:48;101230.34;;;21.02;53.55
57050;BME280;42935;50.966;16.992;2022-09-24T13:32:00;101216.45;;;21.53;52.72
57050;BME280;42935;50.966;16.992;2022-09-24T13:35:20;101211.40;;;21.48;52.65
57050;BME280;42935;50.966;16.992;2022-09-24T13:45:21;101209.93;;;21.46;48.66
57050;BME280;42935;50.966;16.992;2022-09-24T13:48:41;101212.37;;;21.78;50.23
57050;BME280;42935;50.966;16.992;2022-09-24T13:58:41;101207.84;;;22.31;51.48
57050;BME280;42935;50.966;16.992;2022-09-24T14:01:54;101205.65;;;21.88;49.69
57050;BME280;42935;50.966;16.992;2022-09-24T14:05:13;101198.21;;;21.25;48.41
57050;BME280;42935;50.966;16.992;2022-09-24T14:08:24;101209.25;;;21.70;48.49
57050;BME280;42935;50.966;16.992;2022-09-24T14:11:37;101208.09;;;21.79;46.83
57050;BME280;42935;50.966;16.992;2022-09-24T14:14:54;101169.59;;;21.02;50.30
57050;BME280;42935;50.966;16.992;2022-09-24T14:18:15;101203.98;;;20.73;50.81
57050;BME280;42935;50.966;16.992;2022-09-24T14:21:41;101201.19;;;20.96;50.56
57050;BME280;42935;50.966;16.992;2022-09-24T14:25:05;101198.41;;;21.62;52.22
57050;BME280;42935;50.966;16.992;2022-09-24T14:28:18;101202.11;;;21.72;52.10
57050;BME280;42935;50.966;16.992;2022-09-24T14:41:35;101207.60;;;20.28;49.45
57050;BME280;42935;50.966;16.992;2022-09-24T14:44:46;101197.41;;;20.26;47.80
57050;BME280;42935;50.966;16.992;2022-09-24T14:47:59;101201.91;;;21.18;49.19
57050;BME280;42935;50.966;16.992;2022-09-24T14:54:37;101181.55;;;22.60;47.71
57050;BME280;42935;50.966;16.992;2022-09-24T14:58:34;101183.98;;;22.31;46.88
57050;BME280;42935;50.966;16.992;2022-09-24T15:02:14;101187.54;;;22.49;47.50
57050;BME280;42935;50.966;16.992;2022-09-24T15:05:27;101178.23;;;22.47;46.03
57050;BME280;42935;50.966;16.992;2022-09-24T15:08:34;101174.98;;;22.90;43.75
57050;BME280;42935;50.966;16.992;2022-09-24T15:11:45;101167.55;;;23.37;44.38
57050;BME280;42935;50.966;16.992;2022-09-24T15:18:20;101178.69;;;22.59;44.62
57050;BME280;42935;50.966;16.992;2022-09-24T15:21:40;101177.97;;;23.25;44.12
57050;BME280;42935;50.966;16.992;2022-09-24T15:24:55;101182.96;;;23.04;45.43
57050;BME280;42935;50.966;16.992;2022-09-24T15:28:11;101183.17;;;22.78;46.39
57050;BME280;42935;50.966;16.992;2022-09-24T15:31:25;101180.80;;;22.71;46.47
57050;BME280;42935;50.966;16.992;2022-09-24T15:34:41;101174.82;;;22.07;45.53
57050;BME280;42935;50.966;16.992;2022-09-24T15:37:52;101186.07;;;22.30;45.83
57050;BME280;42935;50.966;16.992;2022-09-24T15:41:03;101190.17;;;21.81;47.16
57050;BME280;42935;50.966;16.992;2022-09-24T15:44:23;101189.44;;;21.53;48.07
57050;BME280;42935;50.966;16.992;2022-09-24T15:47:35;101190.53;;;21.72;47.54
57050;BME280;42935;50.966;16.992;2022-09-24T15:50:47;101178.95;;;21.63;47.96
57050;BME280;42935;50.966;16.992;2022-09-24T15:53:56;101185.41;;;20.67;50.31
57050;BME280;42935;50.966;16.992;2022-09-24T15:57:40;101182.45;;;20.57;50.17
57050;BME280;42935;50.966;16.992;2022-09-24T16:00:53;101197.41;;;19.75;51.96
57050;BME280;42935;50.966;16.992;2022-09-24T16:04:04;101195.43;;;18.17;57.41
57050;BME280;42935;50.966;16.992;2022-09-24T16:07:15;101194.21;;;18.34;55.83
57050;BME280;42935;50.966;16.992;2022-09-24T16:10:30;101200.98;;;17.23;58.74
57050;BME280;42935;50.966;16.992;2022-09-24T16:13:40;101200.30;;;17.37;59.03
57050;BME280;42935;50.966;16.992;2022-09-24T16:16:52;101204.49;;;17.37;59.45
57050;BME280;42935;50.966;16.992;2022-09-24T16:20:11;101202.89;;;17.18;59.53
57050;BME280;42935;50.966;16.992;2022-09-24T16:23:22;101197.17;;;16.86;61.12
57050;BME280;42935;50.966;16.992;2022-09-24T16:26:32;101206.27;;;16.76;61.45
57050;BME280;42935;50.966;16.992;2022-09-24T16:29:44;101212.55;;;15.96;64.42
57050;BME280;42935;50.966;16.992;2022-09-24T16:32:55;101214.05;;;15.79;65.57
57050;BME280;42935;50.966;16.992;2022-09-24T16:36:07;101216.32;;;15.73;65.52
57050;BME280;42935;50.966;16.992;2022-09-24T16:39:19;101209.30;;;15.60;66.20
57050;BME280;42935;50.966;16.992;2022-09-24T16:42:29;101205.07;;;15.23;68.10
57050;BME280;42935;50.966;16.992;2022-09-24T16:45:40;101205.51;;;15.15;68.64
57050;BME280;42935;50.966;16.992;2022-09-24T16:48:52;101210.55;;;14.99;68.92
57050;BME280;42935;50.966;16.992;2022-09-24T16:52:03;101212.01;;;15.00;69.15
57050;BME280;42935;50.966;16.992;2022-09-24T16:55:17;101208.38;;;14.91;70.49
57050;BME280;42935;50.966;16.992;2022-09-24T16:58:24;101205.76;;;14.70;71.49
57050;BME280;42935;50.966;16.992;2022-09-24T17:01:36;101209.38;;;14.26;74.94
57050;BME280;42935;50.966;16.992;2022-09-24T17:04:51;101210.03;;;13.95;76.62
57050;BME280;42935;50.966;16.992;2022-09-24T17:08:09;101203.86;;;13.84;75.61
57050;BME280;42935;50.966;16.992;2022-09-24T17:11:20;101212.27;;;13.62;77.75
57050;BME280;42935;50.966;16.992;2022-09-24T17:14:30;101213.78;;;13.46;78.80
57050;BME280;42935;50.966;16.992;2022-09-24T17:17:46;101210.63;;;13.41;79.37
57050;BME280;42935;50.966;16.992;2022-09-24T17:21:07;101214.58;;;13.25;78.71
57050;BME280;42935;50.966;16.992;2022-09-24T17:24:18;101214.33;;;13.13;81.29
57050;BME280;42935;50.966;16.992;2022-09-24T17:27:31;101216.63;;;12.91;82.78
57050;BME280;42935;50.966;16.992;2022-09-24T17:30:43;101219.31;;;12.63;85.49
57050;BME280;42935;50.966;16.992;2022-09-24T17:33:55;101222.48;;;12.52;86.91
57050;BME280;42935;50.966;16.992;2022-09-24T17:37:08;101222.88;;;12.51;86.54
57050;BME280;42935;50.966;16.992;2022-09-24T17:40:18;101205.77;;;12.30;87.36
57050;BME280;42935;50.966;16.992;2022-09-24T17:43:31;101214.05;;;12.27;87.39
57050;BME280;42935;50.966;16.992;2022-09-24T17:46:44;101222.84;;;12.19;89.45
57050;BME280;42935;50.966;16.992;2022-09-24T17:49:55;101227.79;;;12.11;89.51
57050;BME280;42935;50.966;16.992;2022-09-24T17:53:08;101225.88;;;11.84;91.60
57050;BME280;42935;50.966;16.992;2022-09-24T17:56:25;101231.54;;;11.79;92.01
57050;BME280;42935;50.966;16.992;2022-09-24T17:59:37;101234.89;;;11.61;93.01
57050;BME280;42935;50.966;16.992;2022-09-24T18:02:53;101238.70;;;11.61;93.93
57050;BME280;42935;50.966;16.992;2022-09-24T18:06:10;101236.09;;;11.52;96.96
57050;BME280;42935;50.966;16.992;2022-09-24T18:09:26;101246.52;;;11.39;97.98
57050;BME280;42935;50.966;16.992;2022-09-24T18:12:37;101254.56;;;11.22;100.00
57050;BME280;42935;50.966;16.992;2022-09-24T18:15:52;101248.55;;;11.10;99.88
57050;BME280;42935;50.966;16.992;2022-09-24T18:19:09;101248.04;;;11.00;100.00
57050;BME280;42935;50.966;16.992;2022-09-24T18:22:24;101254.61;;;10.95;100.00
57050;BME280;42935;50.966;16.992;2022-09-24T18:25:38;101253.84;;;10.83;100.00
57050;BME280;42935;50.966;16.992;2022-09-24T18:29:04;101247.54;;;10.64;100.00
57050;BME280;42935;50.966;16.992;2022-09-24T18:32:18;101255.91;;;10.55;100.00
57050;BME280;42935;50.966;16.992;2022-09-24T18:35:35;101252.86;;;10.49;100.00
57050;BME280;42935;50.966;16.992;2022-09-24T18:38:51;101241.87;;;10.33;100.00
57050;BME280;42935;50.966;16.992;2022-09-24T18:42:19;101246.62;;;10.19;100.00
57050;BME280;42935;50.966;16.992;2022-09-24T18:45:34;101260.11;;;10.10;100.00
57050;BME280;42935;50.966;16.992;2022-09-24T18:48:51;101259.34;;;9.96;100.00
57050;BME280;42935;50.966;16.992;2022-09-24T18:52:02;101260.13;;;9.87;100.00
57050;BME280;42935;50.966;16.992;2022-09-24T18:55:17;101260.58;;;9.73;100.00
57050;BME280;42935;50.966;16.992;2022-09-24T18:58:36;101263.63;;;9.52;100.00
57050;BME280;42935;50.966;16.992;2022-09-24T19:01:49;101271.98;;;9.24;100.00
57050;BME280;42935;50.966;16.992;2022-09-24T19:05:05;101256.42;;;9.22;100.00
57050;BME280;42935;50.966;16.992;2022-09-24T19:08:24;101263.67;;;9.22;100.00
57050;BME280;42935;50.966;16.992;2022-09-24T19:11:44;101270.55;;;9.15;100.00
57050;BME280;42935;50.966;16.992;2022-09-24T19:15:00;101268.91;;;8.89;100.00
57050;BME280;42935;50.966;16.992;2022-09-24T19:18:18;101267.02;;;8.57;100.00
57050;BME280;42935;50.966;16.992;2022-09-24T19:21:30;101270.08;;;8.44;100.00
57050;BME280;42935;50.966;16.992;2022-09-24T19:24:47;101271.01;;;8.34;100.00
57050;BME280;42935;50.966;16.992;2022-09-24T19:28:05;101275.90;;;8.28;100.00
57050;BME280;42935;50.966;16.992;2022-09-24T19:31:22;101268.00;;;8.27;100.00
57050;BME280;42935;50.966;16.992;2022-09-24T19:34:35;101272.95;;;8.33;100.00